Time;durP1;ratioP1;P1;durP2;ratioP2;P2;SDS_P1;SDS_P2;PMS_P1;PMS_P2;Temp;Humidity;BMP_temperature;BMP_pressure;BME280_temperature;BME280_humidity;BME280_pressure;Samples;Min_cycle;Max_cycle;Signal;HPM_P1;HPM_P2
2024/01/25 00:01:12;;;;;;;36.07;7.47;;;7.50;99.90;;;;;;5139373;27;20047;-77
2024/01/25 00:03:38;;;;;;;37.43;7.53;;;7.50;99.90;;;;;;5157814;27;20126;-78
2024/01/25 00:06:05;;;;;;;40.27;7.30;;;7.50;99.90;;;;;;5157864;27;20047;-78
2024/01/25 00:08:31;;;;;;;34.20;7.20;;;7.40;99.90;;;;;;5157722;27;20133;-78
2024/01/25 00:10:57;;;;;;;48.20;9.50;;;7.40;99.90;;;;;;5157651;27;20361;-78
2024/01/25 00:13:23;;;;;;;46.10;8.63;;;7.40;99.90;;;;;;5139041;27;20038;-78
2024/01/25 00:15:48;;;;;;;37.20;8.00;;;7.30;99.90;;;;;;5157645;27;20042;-78
2024/01/25 00:18:14;;;;;;;43.17;7.60;;;7.30;99.90;;;;;;5157297;27;20042;-77
2024/01/25 00:20:40;;;;;;;41.17;7.47;;;7.30;99.90;;;;;;5157435;27;20039;-79
2024/01/25 00:23:06;;;;;;;50.30;9.67;;;7.20;99.90;;;;;;5139040;27;20102;-78
2024/01/25 00:25:32;;;;;;;34.47;7.30;;;7.20;99.90;;;;;;5138978;27;20058;-78
2024/01/25 00:27:58;;;;;;;33.93;7.30;;;7.20;99.90;;;;;;5157422;27;20276;-78
2024/01/25 00:30:23;;;;;;;34.20;7.10;;;7.10;99.90;;;;;;5138455;27;20487;-78
2024/01/25 00:32:49;;;;;;;42.27;8.03;;;7.10;99.90;;;;;;5157213;27;20066;-78
2024/01/25 00:35:15;;;;;;;40.63;7.27;;;7.10;99.90;;;;;;5156997;27;20074;-74
2024/01/25 00:37:41;;;;;;;47.87;8.63;;;7.00;99.90;;;;;;5157121;27;20089;-78
2024/01/25 00:40:08;;;;;;;46.60;9.10;;;7.00;99.90;;;;;;5157031;27;20291;-78
2024/01/25 00:42:43;;;;;;;43.57;8.27;;;7.00;99.90;;;;;;5156479;27;20786;-78
2024/01/25 00:45:09;;;;;;;50.20;8.68;;;6.90;99.90;;;;;;5157040;27;20280;-78
2024/01/25 00:47:35;;;;;;;43.43;8.77;;;6.90;99.90;;;;;;5156776;27;20478;-78
2024/01/25 00:50:01;;;;;;;45.10;7.90;;;6.90;99.90;;;;;;5138724;27;20416;-78
2024/01/25 00:52:27;;;;;;;44.37;7.83;;;6.90;99.90;;;;;;5156605;27;20498;-78
2024/01/25 00:54:53;;;;;;;35.10;7.13;;;6.90;99.90;;;;;;5156757;27;20110;-78
2024/01/25 00:57:19;;;;;;;50.97;8.50;;;6.90;99.90;;;;;;5156505;27;20341;-78
2024/01/25 00:59:45;;;;;;;42.93;9.07;;;6.90;99.90;;;;;;5156720;27;20363;-78
2024/01/25 01:02:12;;;;;;;46.73;8.90;;;6.90;99.90;;;;;;5156987;27;20050;-78
2024/01/25 01:04:39;;;;;;;51.13;8.30;;;6.90;99.90;;;;;;5156419;27;20665;-78
2024/01/25 01:07:05;;;;;;;39.60;6.70;;;6.90;99.90;;;;;;5138534;27;20366;-78
2024/01/25 01:09:31;;;;;;;43.30;7.10;;;6.80;99.90;;;;;;5156290;27;20309;-78
2024/01/25 01:11:57;;;;;;;44.37;7.90;;;6.80;99.90;;;;;;5156100;27;20747;-78
2024/01/25 01:14:22;;;;;;;41.13;8.23;;;6.80;99.90;;;;;;5156286;27;20094;-78
2024/01/25 01:16:50;;;;;;;42.93;7.73;;;6.80;99.90;;;;;;5156527;27;20478;-78
2024/01/25 01:19:16;;;;;;;45.47;8.20;;;6.80;99.90;;;;;;5156266;27;20047;-78
2024/01/25 01:21:43;;;;;;;49.07;8.23;;;6.70;99.90;;;;;;5137268;27;20631;-78
2024/01/25 01:24:12;;;;;;;47.57;7.90;;;6.80;99.90;;;;;;5156406;27;20276;-78
2024/01/25 01:26:38;;;;;;;51.43;7.57;;;6.70;99.90;;;;;;5155623;27;20805;-78
2024/01/25 01:29:04;;;;;;;37.20;7.30;;;6.70;99.90;;;;;;5120809;27;20609;-78
2024/01/25 01:31:30;;;;;;;43.80;8.57;;;6.70;99.90;;;;;;5155890;27;20279;-78
2024/01/25 01:33:57;;;;;;;43.60;8.43;;;6.70;99.90;;;;;;5155899;27;20854;-78
2024/01/25 01:36:23;;;;;;;42.23;8.70;;;6.70;99.90;;;;;;5155824;27;20043;-78
2024/01/25 01:38:49;;;;;;;55.40;8.47;;;6.60;99.90;;;;;;5156094;27;20359;-78
2024/01/25 01:41:15;;;;;;;43.80;7.97;;;6.60;99.90;;;;;;5137675;27;20051;-78
2024/01/25 01:43:41;;;;;;;50.17;8.37;;;6.60;99.90;;;;;;5136929;27;20220;-78
2024/01/25 01:46:19;;;;;;;44.83;8.03;;;6.60;99.90;;;;;;5155826;27;20039;-78
2024/01/25 01:48:45;;;;;;;45.77;9.93;;;6.60;99.90;;;;;;5155633;27;20042;-78
2024/01/25 01:51:11;;;;;;;46.63;8.83;;;6.50;99.90;;;;;;5155831;27;20283;-78
2024/01/25 01:53:37;;;;;;;46.97;8.40;;;6.50;99.90;;;;;;5155412;27;20126;-78
2024/01/25 01:56:03;;;;;;;41.93;6.70;;;6.50;99.90;;;;;;5155582;27;20308;-78
2024/01/25 01:58:30;;;;;;;48.77;9.20;;;6.50;99.90;;;;;;5155424;27;20086;-78
2024/01/25 02:00:57;;;;;;;47.87;8.77;;;6.40;99.90;;;;;;5155507;27;20287;-78
2024/01/25 02:03:22;;;;;;;45.10;7.40;;;6.40;99.90;;;;;;5155490;27;20399;-78
2024/01/25 02:05:48;;;;;;;50.43;8.63;;;6.40;99.90;;;;;;5155267;27;20316;-78
2024/01/25 02:08:14;;;;;;;47.30;8.30;;;6.40;99.90;;;;;;5137263;27;20046;-78
2024/01/25 02:10:40;;;;;;;50.30;7.97;;;6.40;99.90;;;;;;5136720;27;20390;-78
2024/01/25 02:13:06;;;;;;;50.10;8.90;;;6.30;99.90;;;;;;5136574;27;20296;-78
2024/01/25 02:15:32;;;;;;;48.87;8.30;;;6.30;99.90;;;;;;5136755;27;20051;-78
2024/01/25 02:17:58;;;;;;;41.17;6.90;;;6.30;99.90;;;;;;5137292;27;20043;-78
2024/01/25 02:20:24;;;;;;;50.50;9.50;;;6.30;99.90;;;;;;5154857;27;20497;-78
2024/01/25 02:22:50;;;;;;;40.20;8.23;;;6.30;99.90;;;;;;5154988;27;20279;-78
2024/01/25 02:25:16;;;;;;;46.20;8.40;;;6.30;99.90;;;;;;5136674;27;20612;-78
2024/01/25 02:27:42;;;;;;;57.60;8.77;;;6.20;99.90;;;;;;5119615;27;20211;-78
2024/01/25 02:30:08;;;;;;;42.50;8.80;;;6.20;99.90;;;;;;5155193;27;20047;-78
2024/01/25 02:32:34;;;;;;;37.83;9.33;;;6.20;99.90;;;;;;5154680;27;20050;-77
2024/01/25 02:35:00;;;;;;;55.33;9.00;;;6.20;99.90;;;;;;5155145;27;20276;-78
2024/01/25 02:37:26;;;;;;;56.87;9.23;;;6.20;99.90;;;;;;5155188;27;20272;-78
2024/01/25 02:39:53;;;;;;;53.03;9.27;;;6.20;99.90;;;;;;5155002;27;20276;-78
2024/01/25 02:42:19;;;;;;;43.63;7.80;;;6.20;99.90;;;;;;5155057;27;20043;-78
2024/01/25 02:44:45;;;;;;;54.90;9.77;;;6.20;99.90;;;;;;5154865;27;20276;-78
2024/01/25 02:47:10;;;;;;;46.80;7.63;;;6.20;99.90;;;;;;5155117;27;20050;-78
2024/01/25 02:49:36;;;;;;;47.87;7.67;;;6.20;99.90;;;;;;5154789;27;20070;-77
2024/01/25 02:52:02;;;;;;;46.07;7.43;;;6.20;99.90;;;;;;5155018;27;20561;-78
2024/01/25 02:54:28;;;;;;;45.40;8.37;;;6.20;99.90;;;;;;5155457;27;20042;-78
2024/01/25 02:56:54;;;;;;;45.73;7.77;;;6.20;99.90;;;;;;5158894;27;20276;-78
2024/01/25 02:59:20;;;;;;;50.47;10.37;;;6.20;99.90;;;;;;5159366;27;20050;-78
2024/01/25 03:01:46;;;;;;;52.43;7.83;;;6.20;99.90;;;;;;5158820;27;20047;-78
2024/01/25 03:04:11;;;;;;;48.13;7.53;;;6.10;99.90;;;;;;5159200;27;20038;-78
2024/01/25 03:06:37;;;;;;;45.87;6.93;;;6.10;99.90;;;;;;5158939;27;20053;-78
2024/01/25 03:09:06;;;;;;;48.77;7.63;;;6.10;99.90;;;;;;5158942;27;20103;-78
2024/01/25 03:11:32;;;;;;;53.97;9.20;;;6.10;99.90;;;;;;5158726;27;20047;-74
2024/01/25 03:13:58;;;;;;;54.73;8.90;;;6.10;99.90;;;;;;5158681;27;20288;-78
2024/01/25 03:16:24;;;;;;;50.67;10.10;;;6.10;99.90;;;;;;5158798;27;20744;-78
2024/01/25 03:18:49;;;;;;;52.00;9.23;;;6.10;99.90;;;;;;5158150;27;20035;-78
2024/01/25 03:21:15;;;;;;;50.23;7.60;;;6.10;99.90;;;;;;5140601;27;20049;-78
2024/01/25 03:23:41;;;;;;;54.90;8.13;;;6.10;99.90;;;;;;5158511;27;20091;-78
2024/01/25 03:26:06;;;;;;;44.53;8.47;;;6.10;99.90;;;;;;5158585;27;20471;-78
2024/01/25 03:28:34;;;;;;;58.63;9.50;;;6.00;99.90;;;;;;5158441;27;20440;-78
2024/01/25 03:31:00;;;;;;;45.57;8.00;;;6.00;99.90;;;;;;5158499;27;20047;-78
2024/01/25 03:33:28;;;;;;;49.20;8.90;;;6.00;99.90;;;;;;5157976;27;20311;-78
2024/01/25 03:35:53;;;;;;;46.57;7.10;;;6.00;99.90;;;;;;5158256;27;20490;-78
2024/01/25 03:38:19;;;;;;;54.70;9.70;;;6.00;99.90;;;;;;5158291;27;20287;-78
2024/01/25 03:40:45;;;;;;;47.77;8.63;;;6.00;99.90;;;;;;5158103;27;20541;-78
2024/01/25 03:43:10;;;;;;;48.33;8.40;;;6.00;99.90;;;;;;5158323;27;20042;-78
2024/01/25 03:45:36;;;;;;;48.63;8.10;;;5.90;99.90;;;;;;5157965;27;20107;-76
2024/01/25 03:48:02;;;;;;;54.30;8.70;;;5.90;99.90;;;;;;5140218;27;20046;-78
2024/01/25 03:50:28;;;;;;;51.90;8.27;;;5.90;99.90;;;;;;5158039;27;20475;-78
2024/01/25 03:52:53;;;;;;;58.70;9.53;;;5.90;99.90;;;;;;5157776;27;20478;-78
2024/01/25 03:55:19;;;;;;;45.37;8.20;;;5.90;99.90;;;;;;5158047;27;20049;-78
2024/01/25 03:57:45;;;;;;;55.23;9.63;;;5.90;99.90;;;;;;5157456;27;20390;-78
2024/01/25 04:00:11;;;;;;;47.23;8.17;;;5.90;99.90;;;;;;5157879;27;20106;-78
2024/01/25 04:02:37;;;;;;;49.67;8.43;;;5.90;99.90;;;;;;5157495;27;20272;-78
2024/01/25 04:05:04;;;;;;;41.40;7.53;;;5.90;99.90;;;;;;5157647;27;20431;-78
2024/01/25 04:07:30;;;;;;;48.47;8.38;;;5.90;99.90;;;;;;5157916;27;20034;-78
2024/01/25 04:09:56;;;;;;;50.63;8.27;;;5.90;99.90;;;;;;5157864;27;20501;-78
2024/01/25 04:12:21;;;;;;;54.97;9.60;;;5.90;99.90;;;;;;5158043;27;20107;-78
2024/01/25 04:14:47;;;;;;;53.20;9.07;;;5.90;99.90;;;;;;5157490;27;20035;-78
2024/01/25 04:17:13;;;;;;;55.90;9.00;;;5.80;99.90;;;;;;5139098;27;20066;-78
2024/01/25 04:19:38;;;;;;;52.70;8.17;;;5.80;99.90;;;;;;5157394;27;20046;-78
2024/01/25 04:22:04;;;;;;;56.87;8.27;;;5.80;99.90;;;;;;5157663;27;20136;-78
2024/01/25 04:24:30;;;;;;;55.30;9.07;;;5.80;99.90;;;;;;5157822;27;20038;-78
2024/01/25 04:26:56;;;;;;;54.53;8.53;;;5.80;99.90;;;;;;5138594;27;20130;-78
2024/01/25 04:29:22;;;;;;;49.17;8.87;;;5.80;99.90;;;;;;5138864;27;20061;-78
2024/01/25 04:31:51;;;;;;;52.40;7.70;;;5.80;99.90;;;;;;5157219;27;20268;-78
2024/01/25 04:34:16;;;;;;;48.90;8.80;;;5.80;99.90;;;;;;5157416;27;20061;-78
2024/01/25 04:36:43;;;;;;;48.43;8.33;;;5.80;99.90;;;;;;5157146;27;20522;-77
2024/01/25 04:39:08;;;;;;;56.03;8.47;;;5.70;99.90;;;;;;5138935;27;20046;-78
2024/01/25 04:41:35;;;;;;;49.00;9.33;;;5.70;99.90;;;;;;5138929;27;20339;-78
2024/01/25 04:44:01;;;;;;;56.90;10.00;;;5.70;99.90;;;;;;5156945;27;20458;-78
2024/01/25 04:46:27;;;;;;;53.70;8.83;;;5.70;99.90;;;;;;5157017;27;20327;-78
2024/01/25 04:48:52;;;;;;;42.60;8.10;;;5.70;99.90;;;;;;5156843;27;20081;-78
2024/01/25 04:51:22;;;;;;;57.63;8.83;;;5.70;99.90;;;;;;5156978;27;20478;-78
2024/01/25 04:53:48;;;;;;;62.80;10.90;;;5.70;99.90;;;;;;5156736;27;20099;-78
2024/01/25 04:56:14;;;;;;;50.08;8.25;;;5.60;99.90;;;;;;5157128;27;20130;-78
2024/01/25 04:58:39;;;;;;;50.10;8.67;;;5.60;99.90;;;;;;5138662;27;20135;-78
2024/01/25 05:01:06;;;;;;;53.33;8.40;;;5.60;99.90;;;;;;5138273;27;20088;-78
2024/01/25 05:03:33;;;;;;;59.10;8.60;;;5.60;99.90;;;;;;5156772;27;20047;-78
2024/01/25 05:05:58;;;;;;;55.67;10.23;;;5.60;99.90;;;;;;5156410;27;20366;-78
2024/01/25 05:08:24;;;;;;;57.47;9.60;;;5.60;99.90;;;;;;5156609;27;20051;-78
2024/01/25 05:10:50;;;;;;;57.37;9.03;;;5.60;99.90;;;;;;5156061;27;20397;-78
2024/01/25 05:13:16;;;;;;;54.33;7.30;;;5.60;99.90;;;;;;5156459;27;20041;-78
2024/01/25 05:15:41;;;;;;;58.40;7.93;;;5.60;99.90;;;;;;5156462;27;20482;-78
2024/01/25 05:18:07;;;;;;;62.80;8.90;;;5.50;99.90;;;;;;5155063;27;20432;-78
2024/01/25 05:20:34;;;;;;;59.13;9.73;;;5.50;99.90;;;;;;5156239;27;20043;-78
2024/01/25 05:23:00;;;;;;;59.80;8.27;;;5.50;99.90;;;;;;5155995;27;20117;-78
2024/01/25 05:25:27;;;;;;;50.45;8.75;;;5.50;99.90;;;;;;5156308;27;20054;-78
2024/01/25 05:27:53;;;;;;;59.95;9.00;;;5.50;99.90;;;;;;5156032;27;20047;-78
2024/01/25 05:30:19;;;;;;;48.30;8.32;;;5.50;99.90;;;;;;5156451;27;20043;-78
2024/01/25 05:32:46;;;;;;;55.43;8.40;;;5.50;99.90;;;;;;5156022;27;20431;-78
2024/01/25 05:35:11;;;;;;;51.08;7.63;;;5.40;99.90;;;;;;5137796;27;20058;-78
2024/01/25 05:37:37;;;;;;;49.53;8.17;;;5.40;99.90;;;;;;5156048;27;20061;-78
2024/01/25 05:40:03;;;;;;;50.70;9.00;;;5.40;99.90;;;;;;5155754;27;20462;-77
2024/01/25 05:42:29;;;;;;;61.47;8.60;;;5.40;99.90;;;;;;5156064;27;20053;-78
2024/01/25 05:44:55;;;;;;;53.27;8.70;;;5.30;99.90;;;;;;5137284;27;20042;-78
2024/01/25 05:47:21;;;;;;;53.73;8.20;;;5.40;99.90;;;;;;5155850;27;20123;-78
2024/01/25 05:49:46;;;;;;;49.87;9.53;;;5.30;99.90;;;;;;5137523;27;20042;-78
2024/01/25 05:52:13;;;;;;;47.17;7.67;;;5.30;99.90;;;;;;5155706;27;20299;-78
2024/01/25 05:54:38;;;;;;;56.38;8.23;;;5.30;99.90;;;;;;5155726;27;20046;-78
2024/01/25 05:57:04;;;;;;;52.00;8.67;;;5.30;99.90;;;;;;5155398;27;20038;-78
2024/01/25 05:59:30;;;;;;;49.80;7.97;;;5.30;99.90;;;;;;5155662;27;20042;-78
2024/01/25 06:01:56;;;;;;;54.50;9.27;;;5.30;99.90;;;;;;5119757;27;20546;-78
2024/01/25 06:04:21;;;;;;;52.40;8.23;;;5.20;99.90;;;;;;5155572;27;20042;-78
2024/01/25 06:06:47;;;;;;;50.73;9.47;;;5.20;99.90;;;;;;5155427;27;20436;-78
2024/01/25 06:09:15;;;;;;;50.00;9.47;;;5.20;99.90;;;;;;5155236;27;20042;-78
2024/01/25 06:11:41;;;;;;;59.97;9.60;;;5.20;99.90;;;;;;5155340;27;20078;-78
2024/01/25 06:14:07;;;;;;;47.30;7.97;;;5.10;99.90;;;;;;5155144;27;20050;-78
2024/01/25 06:16:33;;;;;;;52.97;9.55;;;5.10;99.90;;;;;;5155399;27;20074;-78
2024/01/25 06:19:00;;;;;;;59.60;8.27;;;5.10;99.90;;;;;;5155539;27;20479;-78
2024/01/25 06:21:25;;;;;;;46.08;8.07;;;5.10;99.90;;;;;;5155316;27;20046;-78
2024/01/25 06:23:51;;;;;;;47.13;7.97;;;5.00;99.90;;;;;;5155222;27;20114;-78
2024/01/25 06:26:17;;;;;;;47.83;8.57;;;5.10;99.90;;;;;;5155079;27;20578;-78
2024/01/25 06:28:42;;;;;;;45.97;7.63;;;5.10;99.90;;;;;;5136841;27;20062;-78
2024/01/25 06:31:08;;;;;;;54.13;8.40;;;5.00;99.90;;;;;;5154967;27;20494;-78
2024/01/25 06:33:34;;;;;;;51.37;8.37;;;5.00;99.90;;;;;;5154897;27;20058;-78
2024/01/25 06:36:01;;;;;;;48.50;8.87;;;5.00;99.90;;;;;;5136548;27;20140;-78
2024/01/25 06:38:26;;;;;;;61.28;10.07;;;4.90;99.90;;;;;;5155191;27;20047;-78
2024/01/25 06:40:52;;;;;;;45.20;8.40;;;4.90;99.90;;;;;;5136730;27;20046;-78
2024/01/25 06:43:18;;;;;;;46.73;8.73;;;5.00;99.90;;;;;;5154867;27;20050;-78
2024/01/25 06:45:44;;;;;;;38.83;8.17;;;4.90;99.90;;;;;;5155169;27;20047;-78
2024/01/25 06:48:09;;;;;;;46.50;7.57;;;4.90;99.90;;;;;;5154748;27;20470;-78
2024/01/25 06:50:35;;;;;;;60.73;9.47;;;4.90;99.90;;;;;;5136426;27;20130;-78
2024/01/25 06:53:01;;;;;;;49.20;7.80;;;4.90;99.90;;;;;;5154769;27;20038;-78
2024/01/25 06:55:27;;;;;;;47.50;7.60;;;4.80;99.90;;;;;;5155130;27;20315;-78
2024/01/25 06:57:53;;;;;;;49.07;7.73;;;4.80;99.90;;;;;;5154910;27;20042;-78
2024/01/25 07:00:20;;;;;;;53.47;9.63;;;4.80;99.90;;;;;;5136152;27;20535;-78
2024/01/25 07:02:47;;;;;;;45.88;8.48;;;4.80;99.90;;;;;;5154927;27;20078;-78
2024/01/25 07:05:13;;;;;;;44.08;7.50;;;4.80;99.90;;;;;;5136166;27;20502;-77
2024/01/25 07:07:39;;;;;;;45.97;9.18;;;4.80;99.90;;;;;;5154921;27;20046;-77
2024/01/25 07:10:06;;;;;;;43.80;8.15;;;4.90;99.90;;;;;;5136534;27;20057;-78
2024/01/25 07:12:32;;;;;;;51.30;8.25;;;4.80;99.90;;;;;;5154433;27;20525;-78
2024/01/25 07:14:58;;;;;;;62.63;10.20;;;4.80;99.90;;;;;;5136316;27;20043;-78
2024/01/25 07:17:23;;;;;;;52.93;9.37;;;4.80;99.90;;;;;;5154753;27;20050;-77
2024/01/25 07:19:49;;;;;;;59.70;9.80;;;4.80;99.90;;;;;;5154673;27;20276;-78
2024/01/25 07:22:17;;;;;;;51.87;8.03;;;4.70;99.90;;;;;;5136053;27;20165;-78
2024/01/25 07:24:43;;;;;;;52.42;9.63;;;4.70;99.90;;;;;;5154669;27;20047;-78
2024/01/25 07:27:10;;;;;;;49.77;9.40;;;4.70;99.90;;;;;;5154401;27;20095;-77
2024/01/25 07:29:36;;;;;;;62.33;10.27;;;4.70;99.90;;;;;;5119402;27;20051;-78
2024/01/25 07:32:03;;;;;;;51.50;7.55;;;4.80;99.90;;;;;;5154395;27;20100;-75
2024/01/25 07:34:28;;;;;;;39.75;8.23;;;4.80;99.90;;;;;;5154153;27;20115;-78
2024/01/25 07:36:54;;;;;;;51.53;7.63;;;4.80;99.90;;;;;;5136320;27;20050;-78
2024/01/25 07:39:20;;;;;;;43.83;7.90;;;4.80;99.90;;;;;;5154523;27;20038;-78
2024/01/25 07:41:46;;;;;;;54.00;8.80;;;4.80;99.90;;;;;;5157450;27;20042;-78
2024/01/25 07:44:12;;;;;;;52.30;8.53;;;4.90;99.90;;;;;;5157948;27;20042;-77
2024/01/25 07:46:38;;;;;;;50.03;7.35;;;4.80;99.90;;;;;;5158168;27;20547;-78
2024/01/25 07:49:04;;;;;;;50.77;7.07;;;4.90;99.90;;;;;;5139819;27;20046;-75
2024/01/25 07:51:30;;;;;;;45.33;7.70;;;4.90;99.90;;;;;;5158768;27;20050;-78
2024/01/25 07:53:56;;;;;;;46.50;7.30;;;4.90;99.90;;;;;;5147077;27;20034;-79
2024/01/25 07:56:22;;;;;;;47.03;8.32;;;4.90;99.90;;;;;;5161999;27;20085;-78
2024/01/25 07:58:48;;;;;;;56.27;8.80;;;4.90;99.90;;;;;;5158764;27;20074;-78
2024/01/25 08:01:18;;;;;;;61.10;8.85;;;4.90;99.90;;;;;;5163870;27;20043;-77
2024/01/25 08:03:45;;;;;;;60.65;7.57;;;4.90;99.90;;;;;;5176037;27;20039;-78
2024/01/25 08:06:11;;;;;;;46.25;8.32;;;4.90;99.90;;;;;;5175036;27;20046;-77
2024/01/25 08:08:37;;;;;;;53.40;9.97;;;4.90;99.90;;;;;;5175369;27;20046;-77
2024/01/25 08:11:04;;;;;;;57.57;8.03;;;5.00;99.90;;;;;;5173760;27;20276;-78
2024/01/25 08:13:29;;;;;;;56.55;9.20;;;5.00;99.90;;;;;;5168638;27;20043;-77
2024/01/25 08:15:56;;;;;;;49.60;8.10;;;5.00;99.90;;;;;;5164194;27;20134;-78
2024/01/25 08:18:27;;;;;;;56.80;8.23;;;5.00;99.90;;;;;;5145425;27;20055;-77
2024/01/25 08:20:52;;;;;;;53.03;8.70;;;5.00;99.90;;;;;;5160600;27;20125;-77
2024/01/25 08:23:18;;;;;;;50.80;8.70;;;5.00;99.90;;;;;;5159747;27;20078;-77
2024/01/25 08:25:44;;;;;;;52.53;8.40;;;5.00;99.90;;;;;;5160237;27;20604;-79
2024/01/25 08:28:10;;;;;;;46.78;8.88;;;5.00;99.90;;;;;;5159318;27;20046;-77
2024/01/25 08:30:36;;;;;;;59.57;9.40;;;5.00;99.90;;;;;;5140488;27;20081;-78
2024/01/25 08:33:03;;;;;;;42.67;8.00;;;5.00;99.90;;;;;;5140146;27;20054;-77
2024/01/25 08:35:30;;;;;;;63.70;9.68;;;5.00;99.90;;;;;;5158634;27;20062;-78
2024/01/25 08:37:56;;;;;;;48.60;7.95;;;5.00;99.90;;;;;;5157623;27;20516;-78
2024/01/25 08:40:22;;;;;;;52.53;8.30;;;5.00;99.90;;;;;;5138967;27;20592;-78
2024/01/25 08:42:48;;;;;;;53.07;9.03;;;5.10;99.90;;;;;;5157816;27;20180;-78
2024/01/25 08:45:13;;;;;;;54.43;8.87;;;5.00;99.90;;;;;;5157249;27;20050;-78
2024/01/25 08:47:39;;;;;;;50.00;7.53;;;5.10;99.90;;;;;;5157344;27;20046;-78
2024/01/25 08:50:10;;;;;;;56.97;8.87;;;5.10;99.90;;;;;;5157562;27;20050;-79
2024/01/25 08:52:37;;;;;;;58.00;9.98;;;5.10;99.90;;;;;;5157136;27;20043;-78
2024/01/25 08:55:04;;;;;;;48.78;8.15;;;5.10;99.90;;;;;;5157028;27;20046;-78
2024/01/25 08:57:31;;;;;;;52.60;8.27;;;5.10;99.90;;;;;;5156568;27;20095;-78
2024/01/25 08:59:58;;;;;;;57.78;9.13;;;5.20;99.90;;;;;;5156566;27;20494;-78
2024/01/25 09:02:26;;;;;;;59.92;8.20;;;5.20;99.90;;;;;;5156780;27;20047;-78
2024/01/25 09:04:53;;;;;;;49.42;8.38;;;5.20;99.90;;;;;;5156896;27;20075;-78
2024/01/25 09:07:22;;;;;;;51.65;8.82;;;5.30;99.90;;;;;;5156702;27;20146;-77
2024/01/25 09:09:48;;;;;;;52.58;8.95;;;5.30;99.90;;;;;;5156596;27;20495;-78
2024/01/25 09:12:15;;;;;;;52.13;9.40;;;5.40;99.90;;;;;;5156513;27;20049;-75
2024/01/25 09:14:42;;;;;;;53.30;9.13;;;5.40;99.90;;;;;;5156983;27;20042;-78
2024/01/25 09:17:09;;;;;;;53.75;7.45;;;5.40;99.90;;;;;;5156646;27;20106;-78
2024/01/25 09:19:35;;;;;;;51.03;7.68;;;5.50;99.90;;;;;;5138427;27;20061;-77
2024/01/25 09:22:04;;;;;;;56.77;9.10;;;5.50;99.90;;;;;;5156971;27;20039;-77
2024/01/25 09:24:35;;;;;;;59.10;9.18;;;5.50;99.90;;;;;;5156687;27;20432;-77
2024/01/25 09:27:02;;;;;;;48.90;8.70;;;5.50;99.90;;;;;;5157127;27;20090;-77
2024/01/25 09:29:28;;;;;;;55.72;10.13;;;5.60;99.90;;;;;;5158240;27;20044;-77
2024/01/25 09:31:54;;;;;;;45.00;8.70;;;5.60;99.90;;;;;;5139937;27;20137;-78
2024/01/25 09:34:21;;;;;;;45.97;9.77;;;5.60;99.90;;;;;;5156687;27;20137;-78
2024/01/25 09:36:47;;;;;;;61.78;8.80;;;5.60;99.90;;;;;;5156399;27;20427;-78
2024/01/25 09:39:14;;;;;;;60.13;8.73;;;5.60;99.90;;;;;;5156304;27;20046;-78
2024/01/25 09:41:40;;;;;;;56.40;8.90;;;5.60;99.90;;;;;;5155888;27;20099;-78
2024/01/25 09:44:10;;;;;;;65.55;9.77;;;5.60;99.90;;;;;;5138008;27;20107;-78
2024/01/25 09:46:37;;;;;;;44.00;7.97;;;5.60;99.90;;;;;;5155703;27;20046;-78
2024/01/25 09:49:02;;;;;;;52.05;8.85;;;5.60;99.90;;;;;;5155862;27;20100;-78
2024/01/25 09:51:36;;;;;;;55.37;9.83;;;5.60;99.90;;;;;;5155616;27;20039;-78
2024/01/25 09:54:03;;;;;;;53.20;8.77;;;5.60;99.90;;;;;;5155733;27;20050;-78
2024/01/25 09:56:32;;;;;;;57.33;10.10;;;5.70;99.90;;;;;;5155507;27;20050;-78
2024/01/25 09:58:58;;;;;;;50.65;8.77;;;5.70;99.90;;;;;;5155622;27;20042;-78
2024/01/25 10:01:24;;;;;;;60.92;10.73;;;5.70;99.90;;;;;;5155390;27;20069;-78
2024/01/25 10:03:50;;;;;;;62.27;10.43;;;5.70;99.90;;;;;;5155165;27;20035;-80
2024/01/25 10:06:17;;;;;;;63.13;9.60;;;5.70;99.90;;;;;;5155594;27;20087;-78
2024/01/25 10:08:43;;;;;;;51.78;9.60;;;5.70;99.90;;;;;;5154938;27;20545;-78
2024/01/25 10:11:11;;;;;;;62.28;9.40;;;5.80;99.90;;;;;;5155503;27;20053;-78
2024/01/25 10:13:56;;;;;;;52.00;9.77;;;5.80;99.90;;;;;;5136728;27;20042;-78
2024/01/25 10:16:22;;;;;;;50.67;9.38;;;5.90;99.90;;;;;;5155370;27;20046;-78
2024/01/25 10:18:48;;;;;;;56.33;9.93;;;5.90;99.90;;;;;;5155323;27;20050;-79
2024/01/25 10:21:15;;;;;;;49.97;10.07;;;6.00;99.90;;;;;;5155381;27;20047;-78
2024/01/25 10:23:43;;;;;;;56.15;10.32;;;6.00;99.90;;;;;;5155080;27;20050;-78
2024/01/25 10:26:09;;;;;;;52.78;9.02;;;6.10;99.90;;;;;;5155480;27;20104;-78
2024/01/25 10:28:35;;;;;;;49.73;9.30;;;6.10;99.90;;;;;;5155025;27;20513;-78
2024/01/25 10:31:04;;;;;;;55.37;9.60;;;6.20;99.90;;;;;;5136739;27;20280;-78
2024/01/25 10:33:31;;;;;;;47.22;8.65;;;6.20;99.90;;;;;;5136465;27;20055;-78
2024/01/25 10:36:02;;;;;;;48.38;9.05;;;6.30;99.90;;;;;;5137040;27;20050;-78
2024/01/25 10:38:36;;;;;;;48.67;9.63;;;6.30;99.90;;;;;;5155082;27;20110;-78
2024/01/25 10:41:04;;;;;;;55.35;9.82;;;6.30;99.90;;;;;;5155298;27;20042;-78
2024/01/25 10:43:33;;;;;;;53.92;9.15;;;6.30;99.90;;;;;;5154892;27;20038;-78
2024/01/25 10:45:59;;;;;;;51.58;9.68;;;6.40;99.90;;;;;;5155062;27;20534;-78
2024/01/25 10:48:26;;;;;;;52.83;10.40;;;6.50;99.90;;;;;;5154930;27;20043;-76
2024/01/25 10:50:56;;;;;;;52.55;9.05;;;6.50;99.90;;;;;;5155339;27;20113;-78
2024/01/25 10:53:29;;;;;;;51.42;9.38;;;6.60;99.90;;;;;;5136413;27;20035;-78
2024/01/25 10:55:55;;;;;;;50.93;8.93;;;6.70;99.90;;;;;;5154925;27;20046;-78
2024/01/25 10:58:21;;;;;;;47.03;8.80;;;6.80;99.90;;;;;;5154633;27;20790;-78
2024/01/25 11:00:58;;;;;;;52.47;8.47;;;6.90;99.90;;;;;;5154705;27;20280;-79
2024/01/25 11:03:28;;;;;;;47.03;9.40;;;7.00;99.90;;;;;;5154616;27;20482;-79
2024/01/25 11:06:10;;;;;;;50.30;9.67;;;7.10;99.90;;;;;;5154787;27;20280;-79
2024/01/25 11:08:38;;;;;;;56.30;10.20;;;7.20;99.90;;;;;;5154673;27;20315;-78
2024/01/25 11:11:10;;;;;;;45.43;8.50;;;7.30;99.90;;;;;;5154744;27;20272;-78
2024/01/25 11:13:40;;;;;;;52.20;8.77;;;7.30;99.90;;;;;;5154591;27;20288;-78
2024/01/25 11:16:27;;;;;;;43.63;8.77;;;7.40;99.90;;;;;;5137882;27;20313;-78
2024/01/25 11:18:55;;;;;;;43.40;9.43;;;7.40;99.90;;;;;;5140146;27;20278;-78
2024/01/25 11:21:51;;;;;;;44.37;9.07;;;7.40;99.90;;;;;;5158831;27;20276;-78
2024/01/25 11:24:26;;;;;;;44.92;7.82;;;7.40;99.90;;;;;;5137070;27;20283;-78
2024/01/25 11:26:53;;;;;;;35.55;8.00;;;7.40;99.90;;;;;;5158380;27;20123;-78
2024/01/25 11:29:22;;;;;;;52.83;9.73;;;7.40;99.90;;;;;;5140537;27;20046;-79
2024/01/25 11:31:49;;;;;;;50.07;9.90;;;7.40;99.90;;;;;;5158348;27;20279;-78
2024/01/25 11:34:16;;;;;;;41.00;8.17;;;7.30;99.90;;;;;;5139494;27;20831;-78
2024/01/25 11:36:42;;;;;;;50.37;9.93;;;7.30;99.90;;;;;;5158184;27;20276;-78
2024/01/25 11:39:12;;;;;;;42.47;8.97;;;7.30;99.90;;;;;;5158348;27;20397;-78
2024/01/25 11:41:38;;;;;;;38.87;8.70;;;7.30;99.90;;;;;;5139879;27;20291;-78
2024/01/25 11:44:04;;;;;;;46.77;9.23;;;7.20;99.90;;;;;;5158458;27;20272;-78
2024/01/25 11:46:31;;;;;;;44.37;9.63;;;7.20;99.90;;;;;;5158192;27;20732;-78
2024/01/25 11:48:58;;;;;;;41.70;8.07;;;7.20;99.90;;;;;;5158322;27;20078;-78
2024/01/25 11:51:24;;;;;;;48.50;8.60;;;7.20;99.90;;;;;;5158092;27;20604;-78
2024/01/25 11:53:49;;;;;;;56.57;9.47;;;7.20;99.90;;;;;;5158106;27;20344;-78
2024/01/25 11:56:21;;;;;;;45.27;9.27;;;7.30;99.90;;;;;;5158066;27;20092;-78
2024/01/25 11:58:48;;;;;;;47.30;8.47;;;7.30;99.90;;;;;;5157818;27;20070;-78
2024/01/25 12:01:15;;;;;;;41.17;8.30;;;7.30;99.90;;;;;;5157617;27;20785;-78
2024/01/25 12:03:41;;;;;;;51.10;9.43;;;7.30;99.90;;;;;;5157628;27;20315;-78
2024/01/25 12:06:09;;;;;;;43.50;8.93;;;7.40;99.90;;;;;;5157476;27;20308;-78
2024/01/25 12:08:35;;;;;;;45.43;9.03;;;7.40;99.90;;;;;;5157563;27;20085;-76
2024/01/25 12:11:08;;;;;;;42.80;8.80;;;7.40;99.90;;;;;;5157850;27;20288;-78
2024/01/25 12:13:40;;;;;;;50.77;9.67;;;7.50;99.90;;;;;;5157706;27;20292;-78
2024/01/25 12:16:07;;;;;;;41.83;8.40;;;7.60;99.90;;;;;;5158082;27;20329;-79
2024/01/25 12:18:34;;;;;;;46.83;10.10;;;7.50;99.90;;;;;;5157577;27;20315;-78
2024/01/25 12:21:01;;;;;;;47.00;9.10;;;7.50;99.90;;;;;;5138962;27;20295;-78
2024/01/25 12:23:35;;;;;;;47.77;8.70;;;7.50;99.90;;;;;;5157517;27;20683;-78
2024/01/25 12:26:05;;;;;;;43.57;9.80;;;7.50;99.90;;;;;;5157424;27;20285;-78
2024/01/25 12:28:34;;;;;;;41.10;9.80;;;7.50;99.90;;;;;;5157542;27;20636;-78
2024/01/25 12:31:01;;;;;;;39.87;8.57;;;7.50;99.90;;;;;;5157195;27;20336;-78
2024/01/25 12:33:27;;;;;;;40.80;8.37;;;7.50;99.90;;;;;;5138536;27;20386;-78
2024/01/25 12:35:55;;;;;;;49.20;9.57;;;7.50;99.90;;;;;;5157170;27;20307;-78
2024/01/25 12:38:22;;;;;;;49.83;8.00;;;7.60;99.90;;;;;;5156943;27;20819;-79
2024/01/25 12:40:49;;;;;;;48.17;10.37;;;7.60;99.90;;;;;;5156894;27;20283;-78
2024/01/25 12:43:15;;;;;;;45.67;9.87;;;7.60;99.90;;;;;;5157136;27;20355;-78